Airport View

Enter ICAO identifier to see the current METAR for that AWOS.

KFNL for example

KCQM 020215Z AUTO 00000KT 10SM CLR 16/12 A3009 RMK AO2

2 Aug 2014 02:24

Frequency: 118.175

Phone: 218-666-2539

Other Area AWOS: KORB - KEVM - KHIB - KCDD

TAF KHIB 012320Z 0200/0224 VRB03KT P6SM SKC TEMPO 0209/0213 1 1/2SM BR BKN003 FM021900 23006KT P6SM VCTS BKN050CB